Carnation, Washington
Current Conditions -  °F | °C
As of 6:01 AM on Monday 26 Jan 2015 (Local Time) from KRNT Reporting Station
Scattered Clouds Scattered Clouds  
Wind Chill: 40°   Ceiling: Unl
Heat Index: 44°   Visibility: 10mi
Dew Point: 44°   Wind: 7mph
Humidity: 100%   Direction: 150°SSE
Pressure: 29.96"   Gusts: NA
Location:  47.65°N, 121.91°W
Report Text: KRNT 261401Z AUTO 15006KT 10SM SCT004 07/07 A2996 RMK AO2 T00670067 $
Loading
Personal Weather Stations






























Interactive Weather Map New forecast layout! Learn more

10-Day Weather Forecast

Advertisements
Track Severe Weather on mobile